sensor_id;sensor_type;location;lat;lon;timestamp;P1;durP1;ratioP1;P2;durP2;ratioP2
45490;SDS011;31237;45.586;13.782;2023-08-01T00:01:29;5.53;;;2.70;;
45490;SDS011;31237;45.586;13.782;2023-08-01T00:03:54;3.83;;;2.60;;
45490;SDS011;31237;45.586;13.782;2023-08-01T00:06:20;4.18;;;2.97;;
45490;SDS011;31237;45.586;13.782;2023-08-01T00:08:47;3.17;;;2.75;;
45490;SDS011;31237;45.586;13.782;2023-08-01T00:11:13;5.75;;;3.10;;
45490;SDS011;31237;45.586;13.782;2023-08-01T00:13:39;4.90;;;3.20;;
45490;SDS011;31237;45.586;13.782;2023-08-01T00:16:05;3.72;;;2.90;;
45490;SDS011;31237;45.586;13.782;2023-08-01T00:18:31;4.43;;;2.83;;
45490;SDS011;31237;45.586;13.782;2023-08-01T00:20:57;3.70;;;2.85;;
45490;SDS011;31237;45.586;13.782;2023-08-01T00:23:24;3.13;;;2.30;;
45490;SDS011;31237;45.586;13.782;2023-08-01T00:25:50;4.10;;;2.47;;
45490;SDS011;31237;45.586;13.782;2023-08-01T00:28:17;4.78;;;2.70;;
45490;SDS011;31237;45.586;13.782;2023-08-01T00:30:43;3.47;;;2.58;;
45490;SDS011;31237;45.586;13.782;2023-08-01T00:33:09;4.80;;;2.40;;
45490;SDS011;31237;45.586;13.782;2023-08-01T00:35:35;3.47;;;2.30;;
45490;SDS011;31237;45.586;13.782;2023-08-01T00:38:03;3.30;;;2.30;;
45490;SDS011;31237;45.586;13.782;2023-08-01T00:40:47;5.28;;;2.60;;
45490;SDS011;31237;45.586;13.782;2023-08-01T00:43:15;3.72;;;2.85;;
45490;SDS011;31237;45.586;13.782;2023-08-01T00:45:41;4.53;;;2.70;;
45490;SDS011;31237;45.586;13.782;2023-08-01T00:48:07;3.08;;;2.78;;
45490;SDS011;31237;45.586;13.782;2023-08-01T00:50:33;3.63;;;2.80;;
45490;SDS011;31237;45.586;13.782;2023-08-01T00:52:59;3.30;;;2.75;;
45490;SDS011;31237;45.586;13.782;2023-08-01T00:55:25;3.58;;;3.28;;
45490;SDS011;31237;45.586;13.782;2023-08-01T00:57:54;3.92;;;3.05;;
45490;SDS011;31237;45.586;13.782;2023-08-01T01:00:20;3.78;;;2.80;;
45490;SDS011;31237;45.586;13.782;2023-08-01T01:02:45;4.05;;;3.65;;
45490;SDS011;31237;45.586;13.782;2023-08-01T01:05:11;5.05;;;3.08;;
45490;SDS011;31237;45.586;13.782;2023-08-01T01:07:39;4.20;;;3.47;;
45490;SDS011;31237;45.586;13.782;2023-08-01T01:10:05;3.80;;;3.40;;
45490;SDS011;31237;45.586;13.782;2023-08-01T01:12:31;3.35;;;3.00;;
45490;SDS011;31237;45.586;13.782;2023-08-01T01:14:56;5.68;;;3.47;;
45490;SDS011;31237;45.586;13.782;2023-08-01T01:17:22;3.97;;;3.20;;
45490;SDS011;31237;45.586;13.782;2023-08-01T01:19:48;4.75;;;3.10;;
45490;SDS011;31237;45.586;13.782;2023-08-01T01:22:13;3.83;;;3.00;;
45490;SDS011;31237;45.586;13.782;2023-08-01T01:24:40;5.20;;;4.78;;
45490;SDS011;31237;45.586;13.782;2023-08-01T01:27:07;5.38;;;4.90;;
45490;SDS011;31237;45.586;13.782;2023-08-01T01:29:33;5.95;;;5.32;;
45490;SDS011;31237;45.586;13.782;2023-08-01T01:32:02;5.38;;;4.97;;
45490;SDS011;31237;45.586;13.782;2023-08-01T01:34:30;6.35;;;5.85;;
45490;SDS011;31237;45.586;13.782;2023-08-01T01:36:56;6.40;;;5.90;;
45490;SDS011;31237;45.586;13.782;2023-08-01T01:39:21;6.57;;;5.97;;
45490;SDS011;31237;45.586;13.782;2023-08-01T01:41:47;7.00;;;6.50;;
45490;SDS011;31237;45.586;13.782;2023-08-01T01:44:13;7.90;;;7.30;;
45490;SDS011;31237;45.586;13.782;2023-08-01T01:46:39;7.80;;;7.30;;
45490;SDS011;31237;45.586;13.782;2023-08-01T01:49:04;8.73;;;8.13;;
45490;SDS011;31237;45.586;13.782;2023-08-01T01:51:30;8.55;;;7.95;;
45490;SDS011;31237;45.586;13.782;2023-08-01T01:53:56;9.65;;;9.00;;
45490;SDS011;31237;45.586;13.782;2023-08-01T01:56:22;10.27;;;9.70;;
45490;SDS011;31237;45.586;13.782;2023-08-01T01:58:48;10.80;;;10.10;;
45490;SDS011;31237;45.586;13.782;2023-08-01T02:01:14;9.70;;;9.10;;
45490;SDS011;31237;45.586;13.782;2023-08-01T02:03:39;6.93;;;6.43;;
45490;SDS011;31237;45.586;13.782;2023-08-01T02:06:05;5.53;;;5.13;;
45490;SDS011;31237;45.586;13.782;2023-08-01T02:08:31;6.25;;;5.75;;
45490;SDS011;31237;45.586;13.782;2023-08-01T02:10:57;10.20;;;9.60;;
45490;SDS011;31237;45.586;13.782;2023-08-01T02:13:23;10.38;;;9.70;;
45490;SDS011;31237;45.586;13.782;2023-08-01T02:15:50;9.55;;;8.85;;
45490;SDS011;31237;45.586;13.782;2023-08-01T02:18:16;8.43;;;7.93;;
45490;SDS011;31237;45.586;13.782;2023-08-01T02:20:42;5.05;;;4.65;;
45490;SDS011;31237;45.586;13.782;2023-08-01T02:23:07;3.72;;;3.22;;
45490;SDS011;31237;45.586;13.782;2023-08-01T02:25:37;4.88;;;3.17;;
45490;SDS011;31237;45.586;13.782;2023-08-01T02:28:04;3.55;;;3.03;;
45490;SDS011;31237;45.586;13.782;2023-08-01T02:30:30;3.13;;;2.83;;
45490;SDS011;31237;45.586;13.782;2023-08-01T02:32:56;3.65;;;3.10;;
45490;SDS011;31237;45.586;13.782;2023-08-01T02:35:22;4.47;;;3.15;;
45490;SDS011;31237;45.586;13.782;2023-08-01T02:37:47;3.13;;;2.83;;
45490;SDS011;31237;45.586;13.782;2023-08-01T02:40:13;3.63;;;3.30;;
45490;SDS011;31237;45.586;13.782;2023-08-01T02:42:39;3.60;;;3.30;;
45490;SDS011;31237;45.586;13.782;2023-08-01T02:45:05;3.53;;;3.22;;
45490;SDS011;31237;45.586;13.782;2023-08-01T02:47:31;4.15;;;3.35;;
45490;SDS011;31237;45.586;13.782;2023-08-01T02:49:56;3.83;;;3.33;;
45490;SDS011;31237;45.586;13.782;2023-08-01T02:52:22;3.92;;;3.08;;
45490;SDS011;31237;45.586;13.782;2023-08-01T02:54:48;4.32;;;2.63;;
45490;SDS011;31237;45.586;13.782;2023-08-01T02:57:13;3.72;;;2.60;;
45490;SDS011;31237;45.586;13.782;2023-08-01T02:59:39;3.17;;;2.60;;
45490;SDS011;31237;45.586;13.782;2023-08-01T03:02:05;3.78;;;2.88;;
45490;SDS011;31237;45.586;13.782;2023-08-01T03:04:30;3.85;;;2.53;;
45490;SDS011;31237;45.586;13.782;2023-08-01T03:06:56;3.75;;;2.67;;
45490;SDS011;31237;45.586;13.782;2023-08-01T03:09:22;5.20;;;3.08;;
45490;SDS011;31237;45.586;13.782;2023-08-01T03:11:47;3.50;;;2.92;;
45490;SDS011;31237;45.586;13.782;2023-08-01T03:14:13;4.25;;;3.00;;
45490;SDS011;31237;45.586;13.782;2023-08-01T03:16:39;3.95;;;3.28;;
45490;SDS011;31237;45.586;13.782;2023-08-01T03:19:04;6.15;;;3.00;;
45490;SDS011;31237;45.586;13.782;2023-08-01T03:21:33;3.63;;;2.63;;
45490;SDS011;31237;45.586;13.782;2023-08-01T03:23:59;3.80;;;3.40;;
45490;SDS011;31237;45.586;13.782;2023-08-01T03:26:26;4.20;;;3.80;;
45490;SDS011;31237;45.586;13.782;2023-08-01T03:28:55;3.50;;;3.20;;
45490;SDS011;31237;45.586;13.782;2023-08-01T03:31:23;4.40;;;3.58;;
45490;SDS011;31237;45.586;13.782;2023-08-01T03:33:49;3.92;;;3.15;;
45490;SDS011;31237;45.586;13.782;2023-08-01T03:36:15;3.42;;;3.13;;
45490;SDS011;31237;45.586;13.782;2023-08-01T03:38:41;3.70;;;3.30;;
45490;SDS011;31237;45.586;13.782;2023-08-01T03:41:07;3.80;;;3.40;;
45490;SDS011;31237;45.586;13.782;2023-08-01T03:43:32;3.67;;;3.38;;
45490;SDS011;31237;45.586;13.782;2023-08-01T03:45:58;4.43;;;3.72;;
45490;SDS011;31237;45.586;13.782;2023-08-01T03:48:24;4.00;;;3.60;;
45490;SDS011;31237;45.586;13.782;2023-08-01T03:50:49;4.32;;;3.92;;
45490;SDS011;31237;45.586;13.782;2023-08-01T03:53:15;4.43;;;4.03;;
45490;SDS011;31237;45.586;13.782;2023-08-01T03:55:41;4.53;;;4.13;;
45490;SDS011;31237;45.586;13.782;2023-08-01T03:58:08;4.22;;;3.85;;
45490;SDS011;31237;45.586;13.782;2023-08-01T04:00:34;4.82;;;4.28;;
45490;SDS011;31237;45.586;13.782;2023-08-01T04:03:00;4.63;;;3.95;;
45490;SDS011;31237;45.586;13.782;2023-08-01T04:05:26;4.68;;;4.28;;
45490;SDS011;31237;45.586;13.782;2023-08-01T04:07:53;4.30;;;3.88;;
45490;SDS011;31237;45.586;13.782;2023-08-01T04:10:22;4.38;;;3.97;;
45490;SDS011;31237;45.586;13.782;2023-08-01T04:12:47;4.45;;;4.05;;
45490;SDS011;31237;45.586;13.782;2023-08-01T04:15:13;3.95;;;3.45;;
45490;SDS011;31237;45.586;13.782;2023-08-01T04:17:39;5.20;;;3.42;;
45490;SDS011;31237;45.586;13.782;2023-08-01T04:20:04;3.83;;;3.45;;
45490;SDS011;31237;45.586;13.782;2023-08-01T04:22:31;4.47;;;4.07;;
45490;SDS011;31237;45.586;13.782;2023-08-01T04:24:56;4.28;;;3.97;;
45490;SDS011;31237;45.586;13.782;2023-08-01T04:27:22;4.05;;;3.75;;
45490;SDS011;31237;45.586;13.782;2023-08-01T04:29:48;4.47;;;4.07;;
45490;SDS011;31237;45.586;13.782;2023-08-01T04:32:14;3.85;;;3.45;;
45490;SDS011;31237;45.586;13.782;2023-08-01T04:34:40;3.90;;;3.50;;
45490;SDS011;31237;45.586;13.782;2023-08-01T04:37:06;5.28;;;4.00;;
45490;SDS011;31237;45.586;13.782;2023-08-01T04:39:32;4.75;;;4.35;;
45490;SDS011;31237;45.586;13.782;2023-08-01T04:41:58;4.47;;;4.07;;
45490;SDS011;31237;45.586;13.782;2023-08-01T04:44:24;3.60;;;3.30;;
45490;SDS011;31237;45.586;13.782;2023-08-01T04:46:50;3.67;;;3.30;;
45490;SDS011;31237;45.586;13.782;2023-08-01T04:49:15;4.70;;;4.30;;
45490;SDS011;31237;45.586;13.782;2023-08-01T04:51:41;3.60;;;3.28;;
45490;SDS011;31237;45.586;13.782;2023-08-01T04:54:07;7.63;;;3.28;;
45490;SDS011;31237;45.586;13.782;2023-08-01T04:56:32;3.30;;;2.25;;
45490;SDS011;31237;45.586;13.782;2023-08-01T04:58:58;4.50;;;3.47;;
45490;SDS011;31237;45.586;13.782;2023-08-01T05:01:24;4.30;;;3.90;;
45490;SDS011;31237;45.586;13.782;2023-08-01T05:03:49;3.83;;;3.30;;
45490;SDS011;31237;45.586;13.782;2023-08-01T05:06:15;3.55;;;3.00;;
45490;SDS011;31237;45.586;13.782;2023-08-01T05:08:41;3.63;;;2.72;;
45490;SDS011;31237;45.586;13.782;2023-08-01T05:11:06;3.80;;;3.17;;
45490;SDS011;31237;45.586;13.782;2023-08-01T05:13:32;3.72;;;2.60;;
45490;SDS011;31237;45.586;13.782;2023-08-01T05:15:58;13.23;;;3.35;;
45490;SDS011;31237;45.586;13.782;2023-08-01T05:18:23;3.58;;;3.28;;
45490;SDS011;31237;45.586;13.782;2023-08-01T05:20:49;3.90;;;3.40;;
45490;SDS011;31237;45.586;13.782;2023-08-01T05:23:15;3.83;;;3.05;;
45490;SDS011;31237;45.586;13.782;2023-08-01T05:25:41;4.15;;;3.75;;
45490;SDS011;31237;45.586;13.782;2023-08-01T05:28:06;4.75;;;3.90;;
45490;SDS011;31237;45.586;13.782;2023-08-01T05:30:32;5.38;;;4.97;;
45490;SDS011;31237;45.586;13.782;2023-08-01T05:33:01;4.80;;;4.40;;
45490;SDS011;31237;45.586;13.782;2023-08-01T05:35:27;4.82;;;3.28;;
45490;SDS011;31237;45.586;13.782;2023-08-01T05:37:53;3.83;;;3.13;;
45490;SDS011;31237;45.586;13.782;2023-08-01T05:40:19;5.38;;;3.00;;
45490;SDS011;31237;45.586;13.782;2023-08-01T05:42:45;4.60;;;4.20;;
45490;SDS011;31237;45.586;13.782;2023-08-01T05:45:10;3.65;;;3.22;;
45490;SDS011;31237;45.586;13.782;2023-08-01T05:47:36;5.28;;;4.82;;
45490;SDS011;31237;45.586;13.782;2023-08-01T05:50:02;5.38;;;4.57;;
45490;SDS011;31237;45.586;13.782;2023-08-01T05:52:29;4.60;;;4.20;;
45490;SDS011;31237;45.586;13.782;2023-08-01T05:54:55;4.07;;;3.67;;
45490;SDS011;31237;45.586;13.782;2023-08-01T05:57:21;4.82;;;4.43;;
45490;SDS011;31237;45.586;13.782;2023-08-01T05:59:46;5.07;;;4.47;;
45490;SDS011;31237;45.586;13.782;2023-08-01T06:02:12;4.47;;;3.33;;
45490;SDS011;31237;45.586;13.782;2023-08-01T06:04:38;5.38;;;4.63;;
45490;SDS011;31237;45.586;13.782;2023-08-01T06:07:04;6.63;;;6.03;;
45490;SDS011;31237;45.586;13.782;2023-08-01T06:09:30;5.88;;;5.47;;
45490;SDS011;31237;45.586;13.782;2023-08-01T06:11:55;4.57;;;4.10;;
45490;SDS011;31237;45.586;13.782;2023-08-01T06:14:21;3.97;;;3.00;;
45490;SDS011;31237;45.586;13.782;2023-08-01T06:16:47;3.53;;;3.20;;
45490;SDS011;31237;45.586;13.782;2023-08-01T06:19:13;4.20;;;3.80;;
45490;SDS011;31237;45.586;13.782;2023-08-01T06:21:38;3.92;;;3.63;;
45490;SDS011;31237;45.586;13.782;2023-08-01T06:24:04;4.15;;;3.75;;
45490;SDS011;31237;45.586;13.782;2023-08-01T06:26:31;3.28;;;2.95;;
45490;SDS011;31237;45.586;13.782;2023-08-01T06:28:56;4.70;;;4.28;;
45490;SDS011;31237;45.586;13.782;2023-08-01T06:31:22;3.80;;;3.40;;
45490;SDS011;31237;45.586;13.782;2023-08-01T06:33:48;4.05;;;2.97;;
45490;SDS011;31237;45.586;13.782;2023-08-01T06:36:14;4.20;;;3.80;;
45490;SDS011;31237;45.586;13.782;2023-08-01T06:38:41;4.68;;;4.28;;
45490;SDS011;31237;45.586;13.782;2023-08-01T06:41:07;4.40;;;3.95;;
45490;SDS011;31237;45.586;13.782;2023-08-01T06:43:32;4.13;;;2.83;;
45490;SDS011;31237;45.586;13.782;2023-08-01T06:45:58;3.15;;;2.67;;
45490;SDS011;31237;45.586;13.782;2023-08-01T06:48:24;3.25;;;2.50;;
45490;SDS011;31237;45.586;13.782;2023-08-01T06:50:49;4.70;;;2.75;;
45490;SDS011;31237;45.586;13.782;2023-08-01T06:53:16;4.00;;;3.60;;
45490;SDS011;31237;45.586;13.782;2023-08-01T06:55:42;5.38;;;3.45;;
45490;SDS011;31237;45.586;13.782;2023-08-01T06:58:07;3.65;;;2.97;;
45490;SDS011;31237;45.586;13.782;2023-08-01T07:00:33;4.00;;;3.03;;
45490;SDS011;31237;45.586;13.782;2023-08-01T07:02:59;3.70;;;2.63;;
45490;SDS011;31237;45.586;13.782;2023-08-01T07:05:24;3.85;;;2.53;;
45490;SDS011;31237;45.586;13.782;2023-08-01T07:07:50;3.78;;;2.95;;
45490;SDS011;31237;45.586;13.782;2023-08-01T07:10:16;3.10;;;2.20;;
45490;SDS011;31237;45.586;13.782;2023-08-01T07:12:42;3.40;;;2.60;;
45490;SDS011;31237;45.586;13.782;2023-08-01T07:15:08;3.92;;;2.60;;
45490;SDS011;31237;45.586;13.782;2023-08-01T07:17:34;4.35;;;2.67;;
45490;SDS011;31237;45.586;13.782;2023-08-01T07:20:00;5.70;;;2.60;;
45490;SDS011;31237;45.586;13.782;2023-08-01T07:22:25;3.53;;;2.20;;
45490;SDS011;31237;45.586;13.782;2023-08-01T07:24:54;4.70;;;2.22;;
45490;SDS011;31237;45.586;13.782;2023-08-01T07:27:21;2.83;;;2.03;;
45490;SDS011;31237;45.586;13.782;2023-08-01T07:29:46;3.20;;;2.20;;
45490;SDS011;31237;45.586;13.782;2023-08-01T07:32:12;3.22;;;2.33;;
45490;SDS011;31237;45.586;13.782;2023-08-01T07:34:39;3.90;;;2.53;;
45490;SDS011;31237;45.586;13.782;2023-08-01T07:37:04;3.08;;;2.25;;
45490;SDS011;31237;45.586;13.782;2023-08-01T07:39:30;4.32;;;2.35;;
45490;SDS011;31237;45.586;13.782;2023-08-01T07:41:56;4.05;;;2.72;;
45490;SDS011;31237;45.586;13.782;2023-08-01T07:44:22;4.43;;;2.63;;
45490;SDS011;31237;45.586;13.782;2023-08-01T07:46:48;2.92;;;2.08;;
45490;SDS011;31237;45.586;13.782;2023-08-01T07:49:13;3.10;;;2.50;;
45490;SDS011;31237;45.586;13.782;2023-08-01T07:51:39;3.05;;;2.28;;
45490;SDS011;31237;45.586;13.782;2023-08-01T07:54:05;4.18;;;2.55;;
45490;SDS011;31237;45.586;13.782;2023-08-01T07:56:30;5.60;;;2.80;;
45490;SDS011;31237;45.586;13.782;2023-08-01T07:58:56;3.35;;;2.67;;
45490;SDS011;31237;45.586;13.782;2023-08-01T08:01:22;3.65;;;2.60;;
45490;SDS011;31237;45.586;13.782;2023-08-01T08:03:48;6.07;;;3.95;;
45490;SDS011;31237;45.586;13.782;2023-08-01T08:06:13;3.17;;;2.25;;
45490;SDS011;31237;45.586;13.782;2023-08-01T08:08:39;3.00;;;2.60;;
45490;SDS011;31237;45.586;13.782;2023-08-01T08:11:05;3.55;;;2.40;;
45490;SDS011;31237;45.586;13.782;2023-08-01T08:13:30;5.25;;;4.65;;
45490;SDS011;31237;45.586;13.782;2023-08-01T08:15:56;4.63;;;4.30;;
45490;SDS011;31237;45.586;13.782;2023-08-01T08:18:23;3.22;;;2.80;;
45490;SDS011;31237;45.586;13.782;2023-08-01T08:20:49;3.70;;;2.55;;
45490;SDS011;31237;45.586;13.782;2023-08-01T08:23:15;4.05;;;3.28;;
45490;SDS011;31237;45.586;13.782;2023-08-01T08:25:41;3.13;;;2.80;;
45490;SDS011;31237;45.586;13.782;2023-08-01T08:28:09;3.40;;;3.08;;
45490;SDS011;31237;45.586;13.782;2023-08-01T08:30:36;3.35;;;2.78;;
45490;SDS011;31237;45.586;13.782;2023-08-01T08:33:03;3.33;;;2.78;;
45490;SDS011;31237;45.586;13.782;2023-08-01T08:35:31;3.40;;;3.08;;
45490;SDS011;31237;45.586;13.782;2023-08-01T08:38:01;3.45;;;3.15;;
45490;SDS011;31237;45.586;13.782;2023-08-01T08:40:29;3.60;;;2.88;;
45490;SDS011;31237;45.586;13.782;2023-08-01T08:42:57;5.07;;;3.40;;
45490;SDS011;31237;45.586;13.782;2023-08-01T08:45:26;3.63;;;2.80;;
45490;SDS011;31237;45.586;13.782;2023-08-01T08:47:55;5.18;;;4.68;;
45490;SDS011;31237;45.586;13.782;2023-08-01T08:50:24;5.38;;;3.38;;
45490;SDS011;31237;45.586;13.782;2023-08-01T08:52:51;5.45;;;4.65;;
45490;SDS011;31237;45.586;13.782;2023-08-01T08:55:17;4.10;;;3.70;;
45490;SDS011;31237;45.586;13.782;2023-08-01T08:57:48;3.72;;;3.42;;
45490;SDS011;31237;45.586;13.782;2023-08-01T09:00:17;4.63;;;3.35;;
45490;SDS011;31237;45.586;13.782;2023-08-01T09:02:44;5.20;;;3.03;;
45490;SDS011;31237;45.586;13.782;2023-08-01T09:05:10;4.00;;;3.42;;
45490;SDS011;31237;45.586;13.782;2023-08-01T09:07:36;3.67;;;2.70;;
45490;SDS011;31237;45.586;13.782;2023-08-01T09:10:06;3.45;;;2.50;;
45490;SDS011;31237;45.586;13.782;2023-08-01T09:12:33;3.50;;;2.40;;
45490;SDS011;31237;45.586;13.782;2023-08-01T09:15:00;8.02;;;2.85;;
45490;SDS011;31237;45.586;13.782;2023-08-01T09:17:25;7.28;;;2.90;;
45490;SDS011;31237;45.586;13.782;2023-08-01T09:19:55;4.50;;;2.67;;
45490;SDS011;31237;45.586;13.782;2023-08-01T09:22:27;3.40;;;2.67;;
45490;SDS011;31237;45.586;13.782;2023-08-01T09:24:53;4.25;;;2.90;;
45490;SDS011;31237;45.586;13.782;2023-08-01T09:27:20;3.47;;;2.70;;
45490;SDS011;31237;45.586;13.782;2023-08-01T09:29:49;3.70;;;2.50;;
45490;SDS011;31237;45.586;13.782;2023-08-01T09:32:15;4.47;;;2.58;;
45490;SDS011;31237;45.586;13.782;2023-08-01T09:34:41;4.00;;;2.83;;
45490;SDS011;31237;45.586;13.782;2023-08-01T09:37:08;6.10;;;3.35;;
45490;SDS011;31237;45.586;13.782;2023-08-01T09:39:34;3.85;;;2.25;;
45490;SDS011;31237;45.586;13.782;2023-08-01T09:42:00;4.65;;;2.88;;
45490;SDS011;31237;45.586;13.782;2023-08-01T09:44:28;3.95;;;3.55;;
45490;SDS011;31237;45.586;13.782;2023-08-01T09:49:29;5.13;;;2.70;;
45490;SDS011;31237;45.586;13.782;2023-08-01T09:51:56;5.50;;;5.10;;
45490;SDS011;31237;45.586;13.782;2023-08-01T09:54:23;3.92;;;3.08;;
45490;SDS011;31237;45.586;13.782;2023-08-01T09:56:50;3.33;;;2.22;;
45490;SDS011;31237;45.586;13.782;2023-08-01T09:59:21;4.13;;;2.45;;
45490;SDS011;31237;45.586;13.782;2023-08-01T10:01:51;3.55;;;2.72;;
45490;SDS011;31237;45.586;13.782;2023-08-01T10:04:19;3.85;;;2.80;;
45490;SDS011;31237;45.586;13.782;2023-08-01T10:06:49;4.63;;;2.63;;
45490;SDS011;31237;45.586;13.782;2023-08-01T10:09:22;4.00;;;2.78;;
45490;SDS011;31237;45.586;13.782;2023-08-01T10:11:48;3.50;;;2.55;;
45490;SDS011;31237;45.586;13.782;2023-08-01T10:14:16;4.88;;;2.90;;
45490;SDS011;31237;45.586;13.782;2023-08-01T10:16:42;3.80;;;2.53;;
45490;SDS011;31237;45.586;13.782;2023-08-01T10:19:09;3.20;;;2.50;;
45490;SDS011;31237;45.586;13.782;2023-08-01T10:21:37;3.67;;;2.53;;
45490;SDS011;31237;45.586;13.782;2023-08-01T10:24:04;3.50;;;2.53;;
45490;SDS011;31237;45.586;13.782;2023-08-01T10:26:31;3.30;;;2.60;;
45490;SDS011;31237;45.586;13.782;2023-08-01T10:28:57;3.78;;;2.85;;
45490;SDS011;31237;45.586;13.782;2023-08-01T10:31:25;3.92;;;2.40;;
45490;SDS011;31237;45.586;13.782;2023-08-01T10:33:51;3.45;;;2.63;;
45490;SDS011;31237;45.586;13.782;2023-08-01T10:36:18;3.55;;;2.42;;
45490;SDS011;31237;45.586;13.782;2023-08-01T10:38:57;3.53;;;2.25;;
45490;SDS011;31237;45.586;13.782;2023-08-01T10:44:09;3.60;;;2.60;;
45490;SDS011;31237;45.586;13.782;2023-08-01T10:46:45;3.75;;;2.50;;
45490;SDS011;31237;45.586;13.782;2023-08-01T10:49:18;3.20;;;2.40;;
45490;SDS011;31237;45.586;13.782;2023-08-01T10:51:46;4.00;;;2.20;;
45490;SDS011;31237;45.586;13.782;2023-08-01T10:54:19;3.60;;;2.63;;
45490;SDS011;31237;45.586;13.782;2023-08-01T10:56:49;3.00;;;2.22;;
45490;SDS011;31237;45.586;13.782;2023-08-01T10:59:16;3.95;;;2.47;;
45490;SDS011;31237;45.586;13.782;2023-08-01T11:01:43;3.70;;;2.53;;
45490;SDS011;31237;45.586;13.782;2023-08-01T11:04:22;3.40;;;2.08;;
45490;SDS011;31237;45.586;13.782;2023-08-01T11:06:50;4.45;;;2.50;;
45490;SDS011;31237;45.586;13.782;2023-08-01T11:09:23;3.85;;;2.47;;
45490;SDS011;31237;45.586;13.782;2023-08-01T11:11:51;3.60;;;2.45;;
45490;SDS011;31237;45.586;13.782;2023-08-01T11:14:21;3.78;;;2.45;;
45490;SDS011;31237;45.586;13.782;2023-08-01T11:16:49;4.50;;;2.38;;
45490;SDS011;31237;45.586;13.782;2023-08-01T11:21:45;3.53;;;2.45;;
45490;SDS011;31237;45.586;13.782;2023-08-01T11:24:11;3.40;;;2.13;;
45490;SDS011;31237;45.586;13.782;2023-08-01T11:26:43;3.55;;;2.35;;
45490;SDS011;31237;45.586;13.782;2023-08-01T11:31:36;3.65;;;2.50;;
45490;SDS011;31237;45.586;13.782;2023-08-01T11:34:02;2.95;;;2.08;;
45490;SDS011;31237;45.586;13.782;2023-08-01T11:36:28;4.00;;;2.63;;
45490;SDS011;31237;45.586;13.782;2023-08-01T11:38:57;3.63;;;2.60;;
45490;SDS011;31237;45.586;13.782;2023-08-01T11:41:24;4.35;;;2.40;;
45490;SDS011;31237;45.586;13.782;2023-08-01T11:43:53;3.35;;;2.42;;
45490;SDS011;31237;45.586;13.782;2023-08-01T11:46:20;4.88;;;2.47;;
45490;SDS011;31237;45.586;13.782;2023-08-01T11:48:55;3.35;;;2.33;;
45490;SDS011;31237;45.586;13.782;2023-08-01T11:51:21;3.67;;;2.60;;
45490;SDS011;31237;45.586;13.782;2023-08-01T11:53:46;3.05;;;2.35;;
45490;SDS011;31237;45.586;13.782;2023-08-01T11:56:23;2.90;;;2.13;;
45490;SDS011;31237;45.586;13.782;2023-08-01T11:58:49;3.22;;;2.40;;
45490;SDS011;31237;45.586;13.782;2023-08-01T12:01:16;4.05;;;2.90;;
45490;SDS011;31237;45.586;13.782;2023-08-01T12:03:42;3.85;;;2.50;;
45490;SDS011;31237;45.586;13.782;2023-08-01T12:06:12;3.30;;;2.20;;
45490;SDS011;31237;45.586;13.782;2023-08-01T12:08:39;3.63;;;2.70;;
45490;SDS011;31237;45.586;13.782;2023-08-01T12:11:21;3.22;;;2.25;;
45490;SDS011;31237;45.586;13.782;2023-08-01T12:14:12;3.22;;;2.50;;
45490;SDS011;31237;45.586;13.782;2023-08-01T12:16:45;4.65;;;2.67;;
45490;SDS011;31237;45.586;13.782;2023-08-01T12:19:18;3.33;;;2.40;;
45490;SDS011;31237;45.586;13.782;2023-08-01T12:24:11;3.72;;;2.47;;
45490;SDS011;31237;45.586;13.782;2023-08-01T12:26:36;4.13;;;2.80;;
45490;SDS011;31237;45.586;13.782;2023-08-01T12:29:02;4.07;;;2.67;;
45490;SDS011;31237;45.586;13.782;2023-08-01T12:31:28;4.47;;;2.65;;
45490;SDS011;31237;45.586;13.782;2023-08-01T12:33:54;4.30;;;2.30;;
45490;SDS011;31237;45.586;13.782;2023-08-01T12:36:20;3.45;;;2.33;;
45490;SDS011;31237;45.586;13.782;2023-08-01T12:38:46;3.38;;;2.45;;
45490;SDS011;31237;45.586;13.782;2023-08-01T12:41:12;4.63;;;2.40;;
45490;SDS011;31237;45.586;13.782;2023-08-01T12:43:37;3.53;;;2.55;;
45490;SDS011;31237;45.586;13.782;2023-08-01T12:46:03;4.18;;;2.85;;
45490;SDS011;31237;45.586;13.782;2023-08-01T12:48:29;3.90;;;3.05;;
45490;SDS011;31237;45.586;13.782;2023-08-01T12:50:55;4.05;;;2.85;;
45490;SDS011;31237;45.586;13.782;2023-08-01T12:53:21;5.30;;;2.97;;
45490;SDS011;31237;45.586;13.782;2023-08-01T12:55:48;4.25;;;3.88;;
45490;SDS011;31237;45.586;13.782;2023-08-01T12:58:15;3.47;;;2.67;;
45490;SDS011;31237;45.586;13.782;2023-08-01T13:00:41;6.13;;;3.42;;
45490;SDS011;31237;45.586;13.782;2023-08-01T13:03:08;4.38;;;3.13;;
45490;SDS011;31237;45.586;13.782;2023-08-01T13:05:35;5.18;;;3.30;;
45490;SDS011;31237;45.586;13.782;2023-08-01T13:08:01;5.55;;;3.25;;
45490;SDS011;31237;45.586;13.782;2023-08-01T13:10:30;4.75;;;3.20;;
45490;SDS011;31237;45.586;13.782;2023-08-01T13:12:57;4.45;;;3.33;;
45490;SDS011;31237;45.586;13.782;2023-08-01T13:15:23;4.05;;;2.90;;
45490;SDS011;31237;45.586;13.782;2023-08-01T13:17:49;4.40;;;2.92;;
45490;SDS011;31237;45.586;13.782;2023-08-01T13:20:15;4.70;;;3.10;;
45490;SDS011;31237;45.586;13.782;2023-08-01T13:22:41;4.75;;;2.85;;
45490;SDS011;31237;45.586;13.782;2023-08-01T13:25:07;4.85;;;3.00;;
45490;SDS011;31237;45.586;13.782;2023-08-01T13:27:34;4.45;;;2.80;;
45490;SDS011;31237;45.586;13.782;2023-08-01T13:30:01;7.28;;;2.63;;
45490;SDS011;31237;45.586;13.782;2023-08-01T13:32:27;4.75;;;2.80;;
45490;SDS011;31237;45.586;13.782;2023-08-01T13:34:53;4.75;;;3.05;;
45490;SDS011;31237;45.586;13.782;2023-08-01T13:37:19;7.65;;;3.13;;
45490;SDS011;31237;45.586;13.782;2023-08-01T13:39:45;4.88;;;2.95;;
45490;SDS011;31237;45.586;13.782;2023-08-01T13:42:14;4.82;;;3.38;;
45490;SDS011;31237;45.586;13.782;2023-08-01T13:44:40;3.72;;;2.88;;
45490;SDS011;31237;45.586;13.782;2023-08-01T13:47:07;6.18;;;3.20;;
45490;SDS011;31237;45.586;13.782;2023-08-01T13:49:33;6.65;;;3.38;;
45490;SDS011;31237;45.586;13.782;2023-08-01T13:51:59;4.93;;;3.45;;
45490;SDS011;31237;45.586;13.782;2023-08-01T13:54:25;7.85;;;3.15;;
45490;SDS011;31237;45.586;13.782;2023-08-01T13:56:54;5.50;;;3.33;;
45490;SDS011;31237;45.586;13.782;2023-08-01T13:59:20;4.10;;;3.10;;
45490;SDS011;31237;45.586;13.782;2023-08-01T14:01:46;4.78;;;3.42;;
45490;SDS011;31237;45.586;13.782;2023-08-01T14:04:12;4.90;;;3.22;;
45490;SDS011;31237;45.586;13.782;2023-08-01T14:06:41;4.60;;;2.97;;
45490;SDS011;31237;45.586;13.782;2023-08-01T14:09:07;4.28;;;2.88;;
45490;SDS011;31237;45.586;13.782;2023-08-01T14:11:36;5.50;;;3.63;;
45490;SDS011;31237;45.586;13.782;2023-08-01T14:14:02;5.15;;;3.65;;
45490;SDS011;31237;45.586;13.782;2023-08-01T14:16:28;6.22;;;3.20;;
45490;SDS011;31237;45.586;13.782;2023-08-01T14:18:55;3.67;;;2.88;;
45490;SDS011;31237;45.586;13.782;2023-08-01T14:21:20;6.35;;;3.83;;
45490;SDS011;31237;45.586;13.782;2023-08-01T14:23:46;5.10;;;3.60;;
45490;SDS011;31237;45.586;13.782;2023-08-01T14:26:12;3.88;;;3.47;;
45490;SDS011;31237;45.586;13.782;2023-08-01T14:28:38;4.32;;;2.83;;
45490;SDS011;31237;45.586;13.782;2023-08-01T14:31:04;4.25;;;3.00;;
45490;SDS011;31237;45.586;13.782;2023-08-01T14:33:30;4.93;;;3.25;;
45490;SDS011;31237;45.586;13.782;2023-08-01T14:35:56;6.57;;;3.40;;
45490;SDS011;31237;45.586;13.782;2023-08-01T14:38:22;7.22;;;3.40;;
45490;SDS011;31237;45.586;13.782;2023-08-01T14:40:48;7.88;;;3.25;;
45490;SDS011;31237;45.586;13.782;2023-08-01T14:43:14;5.43;;;3.35;;